Time;durP1;ratioP1;P1;durP2;ratioP2;P2;SDS_P1;SDS_P2;PMS_P1;PMS_P2;Temp;Humidity;BMP_temperature;BMP_pressure;BME280_temperature;BME280_humidity;BME280_pressure;Samples;Min_cycle;Max_cycle;Signal;HPM_P1;HPM_P2
2022/03/03 00:00:10;;;;;;;18.53;15.77;;;;;;;;;;525595;28;1299;-74
2022/03/03 00:00:26;;;;;;;20.58;16.05;;;;;;;;;;522978;28;1334;-74
2022/03/03 00:00:41;;;;;;;19.87;15.97;;;;;;;;;;526079;28;1427;-74
2022/03/03 00:00:56;;;;;;;18.65;15.70;;;;;;;;;;527015;28;1506;-74
2022/03/03 00:01:12;;;;;;;18.83;15.73;;;;;;;;;;526616;28;1442;-73
2022/03/03 00:01:27;;;;;;;19.85;15.95;;;;;;;;;;524807;28;1385;-73
2022/03/03 00:01:42;;;;;;;21.43;16.40;;;;;;;;;;527078;28;1513;-73
2022/03/03 00:01:58;;;;;;;20.57;16.43;;;;;;;;;;525523;28;1343;-74
2022/03/03 00:02:13;;;;;;;20.00;16.20;;;;;;;;;;524494;28;1387;-74
2022/03/03 00:02:28;;;;;;;21.20;16.50;;;;;;;;;;523893;28;1133;-73
2022/03/03 00:02:43;;;;;;;21.63;16.87;;;;;;;;;;524442;28;1348;-73
2022/03/03 00:02:59;;;;;;;20.57;16.70;;;;;;;;;;525010;28;1316;-73
2022/03/03 00:03:14;;;;;;;19.15;16.42;;;;;;;;;;524530;28;1237;-73
2022/03/03 00:03:29;;;;;;;18.33;16.03;;;;;;;;;;526817;28;1367;-74
2022/03/03 00:03:44;;;;;;;18.23;16.20;;;;;;;;;;526647;28;1354;-73
2022/03/03 00:04:00;;;;;;;18.87;16.00;;;;;;;;;;526772;28;1438;-73
2022/03/03 00:04:15;;;;;;;19.63;15.93;;;;;;;;;;526776;28;1342;-73
2022/03/03 00:04:31;;;;;;;20.80;16.53;;;;;;;;;;526001;28;1233;-73
2022/03/03 00:04:46;;;;;;;20.83;16.65;;;;;;;;;;526824;28;1406;-74
2022/03/03 00:05:03;;;;;;;19.20;16.13;;;;;;;;;;524345;28;1233;-74
2022/03/03 00:05:19;;;;;;;19.27;15.85;;;;;;;;;;524744;28;1345;-74
2022/03/03 00:05:34;;;;;;;19.95;15.85;;;;;;;;;;525540;28;1433;-73
2022/03/03 00:05:49;;;;;;;19.07;15.60;;;;;;;;;;523009;28;1372;-74
2022/03/03 00:06:05;;;;;;;18.05;15.77;;;;;;;;;;524704;28;1429;-74
2022/03/03 00:06:21;;;;;;;19.17;16.33;;;;;;;;;;524606;28;1339;-74
2022/03/03 00:06:37;;;;;;;19.52;16.17;;;;;;;;;;524200;28;1423;-74
2022/03/03 00:06:52;;;;;;;18.95;15.90;;;;;;;;;;525233;28;1450;-74
2022/03/03 00:07:08;;;;;;;20.50;15.85;;;;;;;;;;527597;27;1450;-73
2022/03/03 00:07:23;;;;;;;20.60;15.63;;;;;;;;;;526716;28;1188;-74
2022/03/03 00:07:39;;;;;;;19.47;15.60;;;;;;;;;;526836;28;1335;-74
2022/03/03 00:07:54;;;;;;;19.03;16.07;;;;;;;;;;530232;27;1341;-74
2022/03/03 00:08:10;;;;;;;19.03;16.17;;;;;;;;;;530070;27;1238;-74
2022/03/03 00:08:25;;;;;;;19.63;16.00;;;;;;;;;;530072;27;1333;-74
2022/03/03 00:08:40;;;;;;;19.73;16.20;;;;;;;;;;529869;27;1383;-73
2022/03/03 00:08:56;;;;;;;18.80;16.13;;;;;;;;;;529985;27;1359;-74
2022/03/03 00:09:11;;;;;;;19.27;15.60;;;;;;;;;;528715;27;1409;-73
2022/03/03 00:09:26;;;;;;;19.92;15.85;;;;;;;;;;525518;28;1302;-74
2022/03/03 00:09:42;;;;;;;22.23;16.57;;;;;;;;;;526278;28;1389;-74
2022/03/03 00:09:57;;;;;;;22.17;16.53;;;;;;;;;;525186;28;1332;-73
2022/03/03 00:10:12;;;;;;;18.45;15.95;;;;;;;;;;524434;28;1430;-73
2022/03/03 00:10:28;;;;;;;18.50;16.07;;;;;;;;;;526050;28;1214;-73
2022/03/03 00:10:43;;;;;;;19.07;16.20;;;;;;;;;;526212;28;1596;-73
2022/03/03 00:10:58;;;;;;;19.33;16.42;;;;;;;;;;525048;28;1419;-74
2022/03/03 00:11:13;;;;;;;19.03;16.30;;;;;;;;;;522345;28;1427;-73
2022/03/03 00:11:30;;;;;;;19.27;16.17;;;;;;;;;;525786;28;1335;-73
2022/03/03 00:11:45;;;;;;;19.05;15.88;;;;;;;;;;526939;28;1280;-73
2022/03/03 00:12:01;;;;;;;18.50;15.97;;;;;;;;;;528441;27;1954;-74
2022/03/03 00:12:16;;;;;;;18.03;15.80;;;;;;;;;;527298;27;1326;-73
2022/03/03 00:12:32;;;;;;;18.05;15.93;;;;;;;;;;527110;28;1367;-74
2022/03/03 00:12:47;;;;;;;19.08;16.30;;;;;;;;;;526621;28;1374;-74
2022/03/03 00:13:02;;;;;;;19.83;16.07;;;;;;;;;;526938;28;1267;-74
2022/03/03 00:13:17;;;;;;;19.67;15.90;;;;;;;;;;529154;27;1429;-74
2022/03/03 00:13:33;;;;;;;19.33;15.93;;;;;;;;;;526488;28;1413;-73
2022/03/03 00:13:48;;;;;;;19.33;16.15;;;;;;;;;;527232;28;1490;-74
2022/03/03 00:14:04;;;;;;;19.30;16.17;;;;;;;;;;523981;28;1397;-75
2022/03/03 00:14:19;;;;;;;19.45;16.13;;;;;;;;;;524886;28;1702;-74
2022/03/03 00:14:36;;;;;;;19.35;15.35;;;;;;;;;;526604;28;1289;-74
2022/03/03 00:14:51;;;;;;;18.92;15.30;;;;;;;;;;526541;28;1347;-75
2022/03/03 00:15:06;;;;;;;18.27;15.50;;;;;;;;;;522407;28;1533;-75
2022/03/03 00:15:22;;;;;;;18.77;15.33;;;;;;;;;;522903;28;1440;-74
2022/03/03 00:15:37;;;;;;;19.15;15.57;;;;;;;;;;524870;28;1446;-74
2022/03/03 00:15:52;;;;;;;19.63;15.90;;;;;;;;;;525496;27;1414;-73
2022/03/03 00:16:08;;;;;;;19.27;15.93;;;;;;;;;;528530;27;1477;-74
2022/03/03 00:16:24;;;;;;;18.77;15.93;;;;;;;;;;529188;27;1467;-73
2022/03/03 00:16:39;;;;;;;18.83;15.85;;;;;;;;;;529565;27;1381;-74
2022/03/03 00:16:54;;;;;;;19.47;15.60;;;;;;;;;;529596;27;1553;-73
2022/03/03 00:17:09;;;;;;;19.38;15.45;;;;;;;;;;530041;27;1360;-74
2022/03/03 00:17:25;;;;;;;18.60;15.50;;;;;;;;;;530012;27;1258;-74
2022/03/03 00:17:40;;;;;;;18.53;15.60;;;;;;;;;;529964;27;1404;-74
2022/03/03 00:17:55;;;;;;;18.40;15.83;;;;;;;;;;528541;27;1655;-74
2022/03/03 00:18:10;;;;;;;17.77;15.45;;;;;;;;;;528751;27;1425;-73
2022/03/03 00:18:26;;;;;;;18.43;15.40;;;;;;;;;;527437;27;1590;-73
2022/03/03 00:18:41;;;;;;;18.57;15.60;;;;;;;;;;526893;28;1370;-74
2022/03/03 00:18:57;;;;;;;18.60;15.40;;;;;;;;;;526754;28;1401;-74
2022/03/03 00:19:12;;;;;;;18.40;15.50;;;;;;;;;;525356;28;1069;-73
2022/03/03 00:19:27;;;;;;;17.97;15.57;;;;;;;;;;525946;28;1330;-74
2022/03/03 00:19:42;;;;;;;19.40;16.02;;;;;;;;;;525895;27;1352;-73
2022/03/03 00:19:58;;;;;;;19.17;15.83;;;;;;;;;;528835;27;1342;-73
2022/03/03 00:20:13;;;;;;;19.33;15.60;;;;;;;;;;527592;27;1460;-74
2022/03/03 00:20:28;;;;;;;20.80;16.08;;;;;;;;;;526693;28;1716;-73
2022/03/03 00:20:43;;;;;;;19.27;15.87;;;;;;;;;;525950;28;1137;-73
2022/03/03 00:20:59;;;;;;;19.47;15.37;;;;;;;;;;525265;28;1184;-73
2022/03/03 00:21:14;;;;;;;20.90;15.85;;;;;;;;;;523545;28;1323;-74
2022/03/03 00:21:29;;;;;;;20.60;16.13;;;;;;;;;;523028;28;1266;-73
2022/03/03 00:21:45;;;;;;;18.97;15.27;;;;;;;;;;523788;28;1285;-73
2022/03/03 00:22:00;;;;;;;18.23;15.00;;;;;;;;;;523628;28;1719;-73
2022/03/03 00:22:18;;;;;;;17.63;15.10;;;;;;;;;;523634;28;1556;-73
2022/03/03 00:22:33;;;;;;;18.38;15.30;;;;;;;;;;526683;28;1144;-74
2022/03/03 00:22:49;;;;;;;19.40;15.77;;;;;;;;;;525775;28;1352;-74
2022/03/03 00:23:04;;;;;;;19.48;15.70;;;;;;;;;;526893;27;1433;-74
2022/03/03 00:23:19;;;;;;;19.37;15.30;;;;;;;;;;528095;27;1283;-74
2022/03/03 00:23:35;;;;;;;18.47;15.60;;;;;;;;;;529576;27;1384;-74
2022/03/03 00:23:50;;;;;;;18.42;15.45;;;;;;;;;;529999;27;1325;-75
2022/03/03 00:24:06;;;;;;;18.20;15.17;;;;;;;;;;530061;27;1373;-74
2022/03/03 00:24:21;;;;;;;17.75;15.10;;;;;;;;;;529977;27;1396;-74
2022/03/03 00:24:36;;;;;;;18.20;15.30;;;;;;;;;;526608;28;1359;-73
2022/03/03 00:24:52;;;;;;;17.95;15.38;;;;;;;;;;526842;28;1367;-75
2022/03/03 00:25:08;;;;;;;17.38;15.10;;;;;;;;;;526394;28;1402;-74
2022/03/03 00:25:23;;;;;;;17.70;15.50;;;;;;;;;;525603;28;1458;-74
2022/03/03 00:25:39;;;;;;;18.70;16.03;;;;;;;;;;527103;28;1069;-74
2022/03/03 00:25:54;;;;;;;18.42;15.60;;;;;;;;;;523539;28;1226;-74
2022/03/03 00:26:09;;;;;;;17.40;15.07;;;;;;;;;;521680;28;1118;-74
2022/03/03 00:26:25;;;;;;;19.65;15.07;;;;;;;;;;523307;28;1265;-74
2022/03/03 00:26:40;;;;;;;20.57;15.37;;;;;;;;;;525028;28;1402;-74
2022/03/03 00:26:56;;;;;;;18.75;15.77;;;;;;;;;;527012;28;1331;-74
2022/03/03 00:27:11;;;;;;;17.97;15.77;;;;;;;;;;523267;28;1777;-74
2022/03/03 00:27:26;;;;;;;18.17;15.57;;;;;;;;;;526029;28;1232;-74
2022/03/03 00:27:42;;;;;;;17.90;15.48;;;;;;;;;;526997;27;2577;-74
2022/03/03 00:27:57;;;;;;;18.40;15.67;;;;;;;;;;526487;28;1295;-74
2022/03/03 00:28:12;;;;;;;18.67;15.30;;;;;;;;;;526675;28;1375;-74
2022/03/03 00:28:27;;;;;;;18.20;15.20;;;;;;;;;;526698;28;1283;-74
2022/03/03 00:28:43;;;;;;;18.03;15.37;;;;;;;;;;526973;28;1395;-74
2022/03/03 00:28:58;;;;;;;17.30;15.40;;;;;;;;;;526551;28;1405;-74
2022/03/03 00:29:13;;;;;;;18.57;16.00;;;;;;;;;;526618;28;1374;-73
2022/03/03 00:29:29;;;;;;;19.45;15.77;;;;;;;;;;526184;28;1314;-74
2022/03/03 00:29:44;;;;;;;19.00;15.83;;;;;;;;;;526657;28;1497;-73
2022/03/03 00:29:59;;;;;;;18.45;15.90;;;;;;;;;;528971;27;1720;-73
2022/03/03 00:30:14;;;;;;;18.77;15.93;;;;;;;;;;526944;27;1420;-74
2022/03/03 00:30:30;;;;;;;19.27;15.77;;;;;;;;;;529191;27;1251;-74
2022/03/03 00:30:45;;;;;;;18.27;15.20;;;;;;;;;;528114;27;1215;-73
2022/03/03 00:31:01;;;;;;;18.23;15.50;;;;;;;;;;527143;28;1410;-73
2022/03/03 00:31:16;;;;;;;19.03;15.80;;;;;;;;;;526231;28;1413;-75
2022/03/03 00:31:31;;;;;;;18.63;15.55;;;;;;;;;;527812;27;1295;-74
2022/03/03 00:31:47;;;;;;;18.40;15.80;;;;;;;;;;526704;28;1259;-74
2022/03/03 00:32:02;;;;;;;18.50;15.73;;;;;;;;;;528791;27;1921;-74
2022/03/03 00:32:18;;;;;;;17.93;15.43;;;;;;;;;;526544;28;1224;-74
2022/03/03 00:32:40;;;;;;;18.30;15.47;;;;;;;;;;524325;28;1348;-73
2022/03/03 00:32:55;;;;;;;17.02;14.98;;;;;;;;;;524348;28;2455;-73
2022/03/03 00:33:11;;;;;;;17.37;15.20;;;;;;;;;;524875;28;1328;-73
2022/03/03 00:33:26;;;;;;;18.85;15.65;;;;;;;;;;522367;28;1238;-74
2022/03/03 00:33:41;;;;;;;20.23;16.10;;;;;;;;;;523732;28;1309;-74
2022/03/03 00:33:56;;;;;;;20.00;16.10;;;;;;;;;;524527;28;1403;-74
2022/03/03 00:34:13;;;;;;;20.13;16.08;;;;;;;;;;523596;28;1372;-74
2022/03/03 00:34:28;;;;;;;19.42;15.95;;;;;;;;;;524208;28;1252;-74
2022/03/03 00:34:44;;;;;;;19.00;16.17;;;;;;;;;;524632;28;1496;-74
2022/03/03 00:34:59;;;;;;;20.30;16.35;;;;;;;;;;523834;28;1329;-74
2022/03/03 00:35:14;;;;;;;20.17;16.40;;;;;;;;;;524140;28;1546;-74
2022/03/03 00:35:30;;;;;;;20.02;16.50;;;;;;;;;;526704;28;1215;-74
2022/03/03 00:35:45;;;;;;;21.10;16.57;;;;;;;;;;525505;28;1277;-74
2022/03/03 00:36:01;;;;;;;22.27;16.93;;;;;;;;;;526301;27;1339;-74
2022/03/03 00:36:16;;;;;;;22.92;17.00;;;;;;;;;;528618;27;1224;-74
2022/03/03 00:36:31;;;;;;;20.20;16.23;;;;;;;;;;528865;27;1370;-74
2022/03/03 00:36:46;;;;;;;20.07;15.50;;;;;;;;;;526851;28;1285;-74
2022/03/03 00:37:02;;;;;;;20.75;15.60;;;;;;;;;;528706;27;1337;-74
2022/03/03 00:37:17;;;;;;;19.87;16.30;;;;;;;;;;528555;27;1239;-74
2022/03/03 00:37:33;;;;;;;19.38;16.50;;;;;;;;;;526957;28;1322;-74
2022/03/03 00:37:48;;;;;;;19.10;16.20;;;;;;;;;;524308;28;1244;-74
2022/03/03 00:38:03;;;;;;;19.10;16.17;;;;;;;;;;523580;28;1467;-74
2022/03/03 00:38:19;;;;;;;20.33;16.20;;;;;;;;;;523479;28;1265;-73
2022/03/03 00:38:34;;;;;;;19.90;16.60;;;;;;;;;;524107;28;1471;-74
2022/03/03 00:38:50;;;;;;;19.23;16.65;;;;;;;;;;525893;28;1256;-74
2022/03/03 00:39:05;;;;;;;20.83;16.47;;;;;;;;;;522198;28;1279;-74
2022/03/03 00:39:21;;;;;;;21.27;16.50;;;;;;;;;;523952;28;1341;-75
2022/03/03 00:39:36;;;;;;;20.23;16.47;;;;;;;;;;525853;28;1267;-74
2022/03/03 00:39:51;;;;;;;20.60;16.35;;;;;;;;;;527151;28;1338;-74
2022/03/03 00:40:08;;;;;;;19.73;16.10;;;;;;;;;;524694;28;1425;-74
2022/03/03 00:40:23;;;;;;;19.40;16.50;;;;;;;;;;525238;28;1575;-74
2022/03/03 00:40:39;;;;;;;19.93;17.00;;;;;;;;;;526751;28;1255;-74
2022/03/03 00:40:54;;;;;;;18.90;16.33;;;;;;;;;;527254;28;1184;-73
2022/03/03 00:41:09;;;;;;;19.98;16.33;;;;;;;;;;528636;27;1307;-74
2022/03/03 00:41:24;;;;;;;19.67;16.57;;;;;;;;;;526732;27;1373;-74
2022/03/03 00:41:40;;;;;;;19.73;16.77;;;;;;;;;;528622;27;1286;-73
2022/03/03 00:41:55;;;;;;;20.75;16.55;;;;;;;;;;525645;28;1332;-74
2022/03/03 00:42:10;;;;;;;19.87;16.47;;;;;;;;;;528729;27;1363;-74
2022/03/03 00:42:26;;;;;;;19.63;16.60;;;;;;;;;;528290;27;1407;-74
2022/03/03 00:42:41;;;;;;;19.13;16.40;;;;;;;;;;528749;27;1322;-73
2022/03/03 00:42:56;;;;;;;19.48;16.48;;;;;;;;;;529223;28;1223;-74
2022/03/03 00:43:12;;;;;;;20.20;16.63;;;;;;;;;;526181;28;1766;-74
2022/03/03 00:43:27;;;;;;;20.98;17.05;;;;;;;;;;528586;27;1307;-73
2022/03/03 00:43:42;;;;;;;20.67;17.03;;;;;;;;;;528699;27;1285;-74
2022/03/03 00:43:58;;;;;;;19.57;16.83;;;;;;;;;;527832;27;1216;-73
2022/03/03 00:44:13;;;;;;;20.10;16.70;;;;;;;;;;528652;27;1220;-73
2022/03/03 00:44:28;;;;;;;20.60;16.80;;;;;;;;;;526226;28;1267;-73
2022/03/03 00:44:43;;;;;;;19.57;16.43;;;;;;;;;;526877;28;1378;-73
2022/03/03 00:44:59;;;;;;;18.48;15.90;;;;;;;;;;527270;28;1252;-73
2022/03/03 00:45:14;;;;;;;19.53;16.10;;;;;;;;;;524994;28;1481;-73
2022/03/03 00:45:30;;;;;;;19.30;16.17;;;;;;;;;;524685;28;1320;-73
2022/03/03 00:45:45;;;;;;;18.63;16.08;;;;;;;;;;522284;28;1059;-74
2022/03/03 00:46:00;;;;;;;19.47;16.57;;;;;;;;;;523374;28;1384;-74
2022/03/03 00:46:16;;;;;;;19.63;16.60;;;;;;;;;;524023;28;1257;-73
2022/03/03 00:46:33;;;;;;;19.73;16.27;;;;;;;;;;521988;28;1411;-74
2022/03/03 00:46:48;;;;;;;20.17;16.52;;;;;;;;;;524847;28;1213;-73
2022/03/03 00:47:04;;;;;;;19.10;16.53;;;;;;;;;;522987;28;1396;-74
2022/03/03 00:47:19;;;;;;;19.27;16.33;;;;;;;;;;520848;28;1406;-74
2022/03/03 00:47:34;;;;;;;19.80;16.23;;;;;;;;;;522768;28;1392;-74
2022/03/03 00:47:49;;;;;;;18.77;16.15;;;;;;;;;;524365;28;1419;-74
2022/03/03 00:48:05;;;;;;;20.40;16.37;;;;;;;;;;522633;28;1459;-74
2022/03/03 00:48:21;;;;;;;20.67;16.48;;;;;;;;;;522091;28;1242;-74
2022/03/03 00:48:36;;;;;;;19.13;16.53;;;;;;;;;;524898;28;1378;-74
2022/03/03 00:48:54;;;;;;;19.42;16.50;;;;;;;;;;523459;28;1150;-74
2022/03/03 00:49:10;;;;;;;18.83;16.25;;;;;;;;;;526895;28;1400;-73
2022/03/03 00:49:25;;;;;;;19.67;16.30;;;;;;;;;;526754;27;1299;-74
2022/03/03 00:49:40;;;;;;;20.60;16.27;;;;;;;;;;527561;28;1394;-73
2022/03/03 00:49:55;;;;;;;20.05;16.30;;;;;;;;;;526688;28;1212;-73
2022/03/03 00:50:11;;;;;;;19.37;16.50;;;;;;;;;;526491;28;1523;-73
2022/03/03 00:50:27;;;;;;;18.97;16.43;;;;;;;;;;525562;28;1226;-73
2022/03/03 00:50:42;;;;;;;19.35;16.30;;;;;;;;;;527023;28;1405;-74
2022/03/03 00:50:59;;;;;;;20.57;16.43;;;;;;;;;;524992;28;1259;-73
2022/03/03 00:51:15;;;;;;;21.52;16.23;;;;;;;;;;526423;28;1458;-73
2022/03/03 00:51:30;;;;;;;20.57;15.87;;;;;;;;;;526878;28;1419;-73
2022/03/03 00:51:45;;;;;;;18.73;15.73;;;;;;;;;;526223;28;1789;-73
2022/03/03 00:52:01;;;;;;;18.27;15.80;;;;;;;;;;525686;28;1902;-74
2022/03/03 00:52:16;;;;;;;18.00;15.95;;;;;;;;;;527132;27;1339;-74
2022/03/03 00:52:31;;;;;;;18.47;16.10;;;;;;;;;;525570;28;1346;-74
2022/03/03 00:52:47;;;;;;;19.10;16.03;;;;;;;;;;525267;28;1318;-74
2022/03/03 00:53:02;;;;;;;19.25;16.05;;;;;;;;;;526827;28;1323;-74
2022/03/03 00:53:18;;;;;;;20.23;16.20;;;;;;;;;;526771;28;1336;-74
2022/03/03 00:53:34;;;;;;;20.10;16.27;;;;;;;;;;526914;28;1362;-74
2022/03/03 00:53:50;;;;;;;18.85;15.98;;;;;;;;;;527087;28;1482;-74
2022/03/03 00:54:05;;;;;;;19.00;15.95;;;;;;;;;;524445;28;1459;-74
2022/03/03 00:54:20;;;;;;;19.17;16.07;;;;;;;;;;522118;28;1388;-74
2022/03/03 00:54:36;;;;;;;19.03;15.87;;;;;;;;;;524399;28;1321;-74
2022/03/03 00:54:51;;;;;;;19.60;15.85;;;;;;;;;;523796;28;1502;-74
2022/03/03 00:55:07;;;;;;;20.23;16.10;;;;;;;;;;525110;28;1336;-74
2022/03/03 00:55:22;;;;;;;20.23;16.40;;;;;;;;;;523055;28;1469;-74
2022/03/03 00:55:38;;;;;;;19.40;16.10;;;;;;;;;;524634;28;1228;-73
2022/03/03 00:55:53;;;;;;;18.90;15.87;;;;;;;;;;525093;28;1225;-74
2022/03/03 00:56:08;;;;;;;18.87;16.03;;;;;;;;;;524916;28;1395;-74
2022/03/03 00:56:25;;;;;;;18.70;15.85;;;;;;;;;;524317;28;1399;-73
2022/03/03 00:56:40;;;;;;;19.33;15.48;;;;;;;;;;522976;28;1503;-73
2022/03/03 00:56:56;;;;;;;20.43;15.30;;;;;;;;;;524275;28;1493;-73
2022/03/03 00:57:11;;;;;;;22.92;16.00;;;;;;;;;;523704;28;1244;-74
2022/03/03 00:57:27;;;;;;;22.52;15.95;;;;;;;;;;525118;28;1058;-74
2022/03/03 00:57:42;;;;;;;19.87;15.20;;;;;;;;;;524398;28;1376;-73
2022/03/03 00:57:57;;;;;;;19.13;15.60;;;;;;;;;;524726;28;1276;-74
2022/03/03 00:58:13;;;;;;;18.30;15.98;;;;;;;;;;524760;28;1367;-73
2022/03/03 00:58:28;;;;;;;18.30;15.80;;;;;;;;;;526737;28;1414;-73
2022/03/03 00:58:45;;;;;;;18.30;15.57;;;;;;;;;;528751;27;1294;-73
2022/03/03 00:59:00;;;;;;;18.92;15.88;;;;;;;;;;530321;27;1421;-73
2022/03/03 00:59:16;;;;;;;18.93;16.27;;;;;;;;;;529184;27;1393;-74
2022/03/03 00:59:31;;;;;;;19.33;16.20;;;;;;;;;;525282;28;1348;-74
2022/03/03 00:59:46;;;;;;;18.83;15.70;;;;;;;;;;526438;28;1401;-74
2022/03/03 01:00:04;;;;;;;19.42;15.90;;;;;;;;;;527056;28;1334;-74
2022/03/03 01:00:19;;;;;;;19.88;15.90;;;;;;;;;;524486;28;1386;-74
2022/03/03 01:00:35;;;;;;;18.40;15.57;;;;;;;;;;524666;28;1673;-74
2022/03/03 01:00:50;;;;;;;17.52;15.25;;;;;;;;;;522414;28;1277;-74
2022/03/03 01:01:06;;;;;;;17.67;15.33;;;;;;;;;;523520;28;1750;-75
2022/03/03 01:01:21;;;;;;;18.20;15.40;;;;;;;;;;525779;28;1287;-73
2022/03/03 01:01:37;;;;;;;18.20;15.00;;;;;;;;;;527244;28;1390;-74
2022/03/03 01:01:52;;;;;;;18.57;14.60;;;;;;;;;;526525;28;1129;-74
2022/03/03 01:02:07;;;;;;;19.38;15.20;;;;;;;;;;527280;28;1260;-73
2022/03/03 01:02:22;;;;;;;17.93;15.50;;;;;;;;;;526789;28;1324;-74
2022/03/03 01:02:38;;;;;;;17.30;15.00;;;;;;;;;;526801;28;1283;-74
2022/03/03 01:02:53;;;;;;;18.15;14.90;;;;;;;;;;528636;27;1413;-74
2022/03/03 01:03:08;;;;;;;18.13;15.33;;;;;;;;;;528885;27;1227;-74
2022/03/03 01:03:24;;;;;;;18.07;15.53;;;;;;;;;;528935;27;1322;-73
2022/03/03 01:03:39;;;;;;;18.08;15.13;;;;;;;;;;528808;27;1353;-73
2022/03/03 01:03:55;;;;;;;17.00;14.80;;;;;;;;;;528745;27;1437;-73
2022/03/03 01:04:10;;;;;;;17.65;14.90;;;;;;;;;;529142;27;1226;-73
2022/03/03 01:04:25;;;;;;;20.07;14.80;;;;;;;;;;529810;27;1376;-73
2022/03/03 01:04:41;;;;;;;19.60;14.93;;;;;;;;;;526529;28;1314;-74
2022/03/03 01:04:56;;;;;;;18.17;15.10;;;;;;;;;;525494;28;1387;-74
2022/03/03 01:05:11;;;;;;;18.70;15.33;;;;;;;;;;524594;28;1398;-74
2022/03/03 01:05:27;;;;;;;19.77;15.27;;;;;;;;;;523954;28;1276;-74
2022/03/03 01:05:42;;;;;;;19.33;15.23;;;;;;;;;;522730;28;1480;-74
2022/03/03 01:05:57;;;;;;;18.47;14.93;;;;;;;;;;520760;28;1249;-73
2022/03/03 01:06:13;;;;;;;18.17;14.60;;;;;;;;;;520337;28;1420;-73
2022/03/03 01:06:29;;;;;;;17.80;14.73;;;;;;;;;;521220;28;1268;-73
2022/03/03 01:06:44;;;;;;;17.67;14.97;;;;;;;;;;523087;28;1344;-73
2022/03/03 01:06:59;;;;;;;18.03;15.50;;;;;;;;;;524572;28;1248;-73
2022/03/03 01:07:15;;;;;;;18.67;15.63;;;;;;;;;;524279;28;1343;-73
2022/03/03 01:07:30;;;;;;;19.98;15.23;;;;;;;;;;524702;28;1149;-73
2022/03/03 01:07:45;;;;;;;18.87;15.13;;;;;;;;;;527193;28;1347;-73
2022/03/03 01:08:02;;;;;;;17.38;15.18;;;;;;;;;;528641;27;1270;-74
2022/03/03 01:08:18;;;;;;;17.65;15.15;;;;;;;;;;528251;27;1085;-74
2022/03/03 01:08:33;;;;;;;17.10;15.10;;;;;;;;;;526889;28;1339;-73
2022/03/03 01:08:49;;;;;;;18.23;15.40;;;;;;;;;;524606;28;1371;-74
2022/03/03 01:09:04;;;;;;;18.70;15.37;;;;;;;;;;524536;28;1348;-75
2022/03/03 01:09:20;;;;;;;17.50;15.30;;;;;;;;;;526680;28;1327;-74
2022/03/03 01:09:35;;;;;;;18.30;15.27;;;;;;;;;;526372;28;1362;-74
2022/03/03 01:09:50;;;;;;;19.00;15.47;;;;;;;;;;524827;28;1261;-75
2022/03/03 01:10:07;;;;;;;17.92;15.30;;;;;;;;;;524265;28;1319;-75
2022/03/03 01:10:23;;;;;;;17.40;15.32;;;;;;;;;;523072;28;1434;-74
2022/03/03 01:10:39;;;;;;;18.43;15.67;;;;;;;;;;526621;28;1306;-74
2022/03/03 01:10:55;;;;;;;18.40;15.10;;;;;;;;;;526856;28;1450;-74
2022/03/03 01:11:10;;;;;;;17.70;15.00;;;;;;;;;;526085;28;1260;-73
2022/03/03 01:11:25;;;;;;;17.88;15.18;;;;;;;;;;526450;28;1438;-73
2022/03/03 01:11:41;;;;;;;18.37;15.13;;;;;;;;;;525139;28;1352;-74
2022/03/03 01:11:56;;;;;;;18.33;15.00;;;;;;;;;;526259;28;1945;-73
2022/03/03 01:12:11;;;;;;;19.05;15.05;;;;;;;;;;527349;28;1256;-74
2022/03/03 01:12:27;;;;;;;19.40;15.67;;;;;;;;;;526725;28;1044;-73
2022/03/03 01:12:42;;;;;;;18.33;15.73;;;;;;;;;;526508;28;1185;-73
2022/03/03 01:12:57;;;;;;;17.88;15.63;;;;;;;;;;527009;28;1354;-73
2022/03/03 01:13:12;;;;;;;17.30;15.30;;;;;;;;;;523605;28;1343;-73
2022/03/03 01:13:28;;;;;;;16.90;14.90;;;;;;;;;;524931;28;1330;-74
2022/03/03 01:13:43;;;;;;;17.70;15.30;;;;;;;;;;524341;28;1209;-73
2022/03/03 01:13:58;;;;;;;18.70;15.30;;;;;;;;;;522817;28;1245;-73
2022/03/03 01:14:14;;;;;;;18.73;15.40;;;;;;;;;;522421;28;1340;-74
2022/03/03 01:14:29;;;;;;;19.77;15.43;;;;;;;;;;522308;28;1218;-73
2022/03/03 01:14:44;;;;;;;20.33;15.40;;;;;;;;;;522373;28;1349;-73
2022/03/03 01:15:00;;;;;;;18.70;15.37;;;;;;;;;;522701;28;1261;-73
2022/03/03 01:15:15;;;;;;;18.60;15.52;;;;;;;;;;523894;28;1383;-73
2022/03/03 01:15:31;;;;;;;19.60;15.80;;;;;;;;;;526083;28;1217;-73
2022/03/03 01:15:47;;;;;;;19.38;15.63;;;;;;;;;;526533;28;1339;-74
2022/03/03 01:16:02;;;;;;;20.20;15.40;;;;;;;;;;526615;28;1320;-74
2022/03/03 01:16:18;;;;;;;20.07;15.40;;;;;;;;;;527031;28;1435;-73
2022/03/03 01:16:33;;;;;;;18.63;15.60;;;;;;;;;;526728;28;1413;-73
2022/03/03 01:16:50;;;;;;;18.03;15.20;;;;;;;;;;524828;28;1351;-73
2022/03/03 01:17:05;;;;;;;18.05;15.20;;;;;;;;;;524463;28;1363;-74
2022/03/03 01:17:22;;;;;;;18.60;15.48;;;;;;;;;;524366;28;1391;-74
2022/03/03 01:17:38;;;;;;;17.98;15.45;;;;;;;;;;527662;27;1537;-74
2022/03/03 01:17:53;;;;;;;17.90;15.25;;;;;;;;;;528782;28;1400;-74
2022/03/03 01:18:08;;;;;;;18.67;15.57;;;;;;;;;;528846;27;1346;-73
2022/03/03 01:18:24;;;;;;;18.92;15.75;;;;;;;;;;528414;27;1389;-73
2022/03/03 01:18:39;;;;;;;18.03;15.23;;;;;;;;;;529237;27;1204;-74
2022/03/03 01:18:54;;;;;;;18.57;15.50;;;;;;;;;;529913;27;1357;-74
2022/03/03 01:19:10;;;;;;;18.60;15.70;;;;;;;;;;529896;27;1456;-74
2022/03/03 01:19:25;;;;;;;18.53;15.57;;;;;;;;;;526917;27;1417;-73
2022/03/03 01:19:41;;;;;;;18.35;15.25;;;;;;;;;;527405;27;1134;-73
2022/03/03 01:19:57;;;;;;;17.95;15.00;;;;;;;;;;529758;27;1362;-73
2022/03/03 01:20:12;;;;;;;18.10;14.87;;;;;;;;;;528463;27;1360;-73
2022/03/03 01:20:28;;;;;;;19.20;15.35;;;;;;;;;;529071;27;1250;-73
2022/03/03 01:20:43;;;;;;;19.13;15.70;;;;;;;;;;529517;27;1333;-73
2022/03/03 01:20:58;;;;;;;17.80;15.10;;;;;;;;;;529844;27;1325;-73
2022/03/03 01:21:14;;;;;;;18.40;15.40;;;;;;;;;;529721;27;1171;-73
2022/03/03 01:21:29;;;;;;;18.10;15.53;;;;;;;;;;529575;27;1274;-74
2022/03/03 01:21:45;;;;;;;17.00;14.90;;;;;;;;;;530026;27;1384;-73
2022/03/03 01:22:00;;;;;;;17.15;14.98;;;;;;;;;;530039;27;1537;-73
2022/03/03 01:22:16;;;;;;;17.53;15.37;;;;;;;;;;528511;27;1370;-74
2022/03/03 01:22:31;;;;;;;16.97;15.07;;;;;;;;;;526880;28;1328;-74
2022/03/03 01:22:46;;;;;;;17.25;15.00;;;;;;;;;;526490;28;1398;-74
2022/03/03 01:23:02;;;;;;;18.37;15.23;;;;;;;;;;526356;28;1364;-74
2022/03/03 01:23:17;;;;;;;18.15;15.48;;;;;;;;;;525521;28;1308;-73
2022/03/03 01:23:33;;;;;;;17.73;15.83;;;;;;;;;;524204;28;1281;-74
2022/03/03 01:23:48;;;;;;;18.92;15.50;;;;;;;;;;524128;28;1296;-74
2022/03/03 01:24:04;;;;;;;19.10;15.03;;;;;;;;;;524112;28;729;-74
2022/03/03 01:24:19;;;;;;;18.13;15.20;;;;;;;;;;523774;28;1111;-74
2022/03/03 01:24:34;;;;;;;18.20;15.52;;;;;;;;;;524035;28;708;-75
2022/03/03 01:24:49;;;;;;;19.07;15.50;;;;;;;;;;526316;28;953;-74
2022/03/03 01:25:05;;;;;;;18.07;15.37;;;;;;;;;;528267;28;780;-74
2022/03/03 01:25:21;;;;;;;17.77;15.27;;;;;;;;;;526935;27;1408;-74
2022/03/03 01:25:36;;;;;;;18.17;15.10;;;;;;;;;;528210;27;1035;-74
2022/03/03 01:25:52;;;;;;;18.83;15.37;;;;;;;;;;529514;27;977;-75
2022/03/03 01:26:07;;;;;;;19.38;15.60;;;;;;;;;;528137;28;1252;-74
2022/03/03 01:26:23;;;;;;;18.73;15.43;;;;;;;;;;526584;28;795;-74
2022/03/03 01:26:38;;;;;;;19.00;15.73;;;;;;;;;;526101;28;1174;-74
2022/03/03 01:26:54;;;;;;;18.40;15.77;;;;;;;;;;526280;28;762;-74
2022/03/03 01:27:09;;;;;;;18.10;15.50;;;;;;;;;;526112;28;1309;-74
2022/03/03 01:27:24;;;;;;;18.50;15.60;;;;;;;;;;527411;28;697;-73
2022/03/03 01:27:40;;;;;;;18.08;15.50;;;;;;;;;;528064;28;1633;-73
2022/03/03 01:27:55;;;;;;;17.53;15.27;;;;;;;;;;528174;28;728;-73
2022/03/03 01:28:10;;;;;;;18.50;15.50;;;;;;;;;;528410;28;906;-73
2022/03/03 01:28:26;;;;;;;18.67;15.88;;;;;;;;;;528020;28;1173;-73
2022/03/03 01:28:41;;;;;;;17.73;15.77;;;;;;;;;;526417;28;795;-74
2022/03/03 01:28:56;;;;;;;18.13;15.60;;;;;;;;;;526141;28;867;-74
2022/03/03 01:29:12;;;;;;;18.27;15.43;;;;;;;;;;526062;28;1318;-74
2022/03/03 01:29:27;;;;;;;18.30;15.20;;;;;;;;;;525612;28;1286;-74
2022/03/03 01:29:42;;;;;;;18.97;15.47;;;;;;;;;;525950;28;737;-73
2022/03/03 01:29:57;;;;;;;18.65;15.80;;;;;;;;;;525796;28;871;-73
2022/03/03 01:30:13;;;;;;;18.50;15.63;;;;;;;;;;524997;28;1612;-73
2022/03/03 01:30:28;;;;;;;19.03;15.70;;;;;;;;;;524939;28;1287;-73
2022/03/03 01:30:43;;;;;;;18.27;15.63;;;;;;;;;;524472;28;1068;-74
2022/03/03 01:30:59;;;;;;;17.63;15.47;;;;;;;;;;526269;28;725;-73
2022/03/03 01:31:14;;;;;;;18.83;15.50;;;;;;;;;;526127;28;736;-74
2022/03/03 01:31:29;;;;;;;18.40;15.55;;;;;;;;;;524154;28;1236;-73
2022/03/03 01:31:45;;;;;;;19.47;16.10;;;;;;;;;;522048;28;1539;-74
2022/03/03 01:32:00;;;;;;;20.37;16.17;;;;;;;;;;521670;28;1967;-74
2022/03/03 01:32:15;;;;;;;19.00;15.75;;;;;;;;;;522210;28;1006;-74
2022/03/03 01:32:31;;;;;;;19.37;15.90;;;;;;;;;;526174;28;1200;-74
2022/03/03 01:32:46;;;;;;;18.77;15.77;;;;;;;;;;526169;28;708;-74